Portada
METAR-TAF:

METAR-TAF

Aeroports :

Saràtov, Rússia

latitud: 51-42-46N, longitud: 46-10-16E, altitud: 118 m

Observació

L'informe es va fer fa 30 minuts, a les 22:30 UTC
Vent 10 kt del Nord/Nord-Oest
Temperatura 16°C
Humitat 72%
Pressió 1010 hPa
Visibilitat 10 km o més
sense núvols per sota de 1500 mi sense presència de cumulonimbus.

METAR: UWSG 082230Z 34005MPS CAVOK 16/11 Q1010 R26/CLRD70 NOSIG RMK QFE755/1007

Hora: 02:00 (23:00 UTC)

Pronòstic

L'informe es va fer fa 3 hores i 7 minuts, a les 19:53 UTC
Pronòstic vàlid del 08 a les 21 UTC al 09 a les 06 UTC
Vent 6 kt del Nord/Nord-Oest amb ràfegues de 16 kt
Visibilitat 10 km o més
sense núvols per sota de 1500 mi sense presència de cumulonimbus.
Temporalment
l' 09 a les 03 UTC al 09 a les 06 UTC
Vent 10 kt del Nord/Nord-Oest amb ràfegues de 23 kt

TAF: UWSG 081953Z 0821/0906 33003G08MPS CAVOK TX23/0906Z TN15/0902Z TEMPO 0903/0906 34005G12MPS

Observacions i pronòstics meteorològics de més de 4000 aeroports (METAR i TAF).

Les estacions disponibles són els punts grocs i vermells al mapa.

Posi el ratolí al punt desitjat per veure el nom de l'estació.

Feu clic per veure les observacions i els pronòstics meteorològics.

Per canviar el mapa: feu clic els botons verds amb una creu de color negre per apropar; al botó verd amb un guió per allunyar la imatge; o en les fletxes verdes per a mapes adjacents.


METAR-TAF: